Time;durP1;ratioP1;P1;durP2;ratioP2;P2;SDS_P1;SDS_P2;PMS_P1;PMS_P2;Temp;Humidity;BMP_temperature;BMP_pressure;BME280_temperature;BME280_humidity;BME280_pressure;Samples;Min_cycle;Max_cycle;Signal;HPM_P1;HPM_P2
2022/11/10 00:01:09;;;;;;;70.78;34.20;;;;;;;;;;12962553;22;20343;-73
2022/11/10 00:06:09;;;;;;;77.53;35.28;;;;;;;;;;12949615;22;19998;-74
2022/11/10 00:11:09;;;;;;;68.75;34.15;;;;;;;;;;12950876;22;20000;-75
2022/11/10 00:21:29;;;;;;;73.43;34.15;;;;;;;;;;12996461;22;20443;-75
2022/11/10 00:26:29;;;;;;;74.07;33.03;;;;;;;;;;12949339;22;20019;-74
2022/11/10 00:31:29;;;;;;;72.70;33.58;;;;;;;;;;12949230;22;19996;-73
2022/11/10 00:36:29;;;;;;;70.10;33.85;;;;;;;;;;12952955;22;20071;-74
2022/11/10 00:41:30;;;;;;;75.40;31.80;;;;;;;;;;13001140;22;20002;-77
2022/11/10 00:46:30;;;;;;;72.80;34.22;;;;;;;;;;12953214;22;20038;-78
2022/11/10 00:51:30;;;;;;;64.35;30.00;;;;;;;;;;12953214;22;20039;-74
2022/11/10 00:56:31;;;;;;;69.57;32.15;;;;;;;;;;13001211;22;20331;-77
2022/11/10 01:01:31;;;;;;;77.50;35.17;;;;;;;;;;12952637;22;19995;-78
2022/11/10 01:06:31;;;;;;;66.78;31.98;;;;;;;;;;12952356;22;19999;-77
2022/11/10 01:11:32;;;;;;;68.13;29.57;;;;;;;;;;12952953;22;20031;-72
2022/11/10 01:16:32;;;;;;;68.05;30.52;;;;;;;;;;12979831;22;20279;-79
2022/11/10 01:21:32;;;;;;;72.78;31.50;;;;;;;;;;12952352;22;20022;-73
2022/11/10 01:26:33;;;;;;;64.10;28.98;;;;;;;;;;13000481;22;20499;-73
2022/11/10 01:31:33;;;;;;;68.53;30.67;;;;;;;;;;12951890;22;20000;-73
2022/11/10 01:36:33;;;;;;;67.43;32.63;;;;;;;;;;13000624;22;19984;-74
2022/11/10 01:41:33;;;;;;;75.13;34.80;;;;;;;;;;12952022;22;19991;-73
2022/11/10 01:46:34;;;;;;;75.18;31.63;;;;;;;;;;12951140;22;20019;-76
2022/11/10 01:51:34;;;;;;;68.35;31.83;;;;;;;;;;12951955;22;20073;-73
2022/11/10 01:56:37;;;;;;;66.15;32.85;;;;;;;;;;13000127;22;20150;-74
2022/11/10 02:01:37;;;;;;;70.40;30.60;;;;;;;;;;12954898;22;19991;-76
2022/11/10 02:06:39;;;;;;;66.05;31.10;;;;;;;;;;12954985;22;20399;-81
2022/11/10 02:11:40;;;;;;;69.82;30.42;;;;;;;;;;13000035;22;20019;-75
2022/11/10 02:16:41;;;;;;;64.35;32.80;;;;;;;;;;12926446;22;19998;-73
2022/11/10 02:21:41;;;;;;;64.63;31.00;;;;;;;;;;12996687;22;19999;-76
2022/11/10 02:26:54;;;;;;;63.55;29.92;;;;;;;;;;12951045;22;20437;-79
2022/11/10 02:31:55;;;;;;;70.30;31.95;;;;;;;;;;12999098;22;20070;-75
2022/11/10 02:36:55;;;;;;;68.30;31.85;;;;;;;;;;12951108;22;20031;-76
2022/11/10 02:41:55;;;;;;;64.90;31.25;;;;;;;;;;12950982;22;19999;-76
2022/11/10 02:46:55;;;;;;;69.03;33.03;;;;;;;;;;12926078;22;20000;-77
2022/11/10 02:51:56;;;;;;;71.10;32.88;;;;;;;;;;12950646;22;20082;-76
2022/11/10 02:56:57;;;;;;;57.72;30.30;;;;;;;;;;12996232;22;19988;-79
2022/11/10 03:01:57;;;;;;;69.07;30.85;;;;;;;;;;12950580;22;20086;-77
2022/11/10 03:06:57;;;;;;;69.20;31.88;;;;;;;;;;12950463;22;20399;-78
2022/11/10 03:11:57;;;;;;;76.55;34.15;;;;;;;;;;12949936;22;20052;-76
2022/11/10 03:16:57;;;;;;;75.97;32.42;;;;;;;;;;12999089;22;20064;-77
2022/11/10 03:21:58;;;;;;;66.90;32.75;;;;;;;;;;12950120;22;20358;-74
2022/11/10 03:26:58;;;;;;;72.40;32.08;;;;;;;;;;12950256;22;20491;-74
2022/11/10 03:31:58;;;;;;;70.20;32.38;;;;;;;;;;12924149;22;20423;-82
2022/11/10 03:36:58;;;;;;;69.70;31.63;;;;;;;;;;12949793;22;20316;-74
2022/11/10 03:41:59;;;;;;;79.32;33.10;;;;;;;;;;12949823;22;20019;-78
2022/11/10 03:47:01;;;;;;;71.05;31.17;;;;;;;;;;12949604;22;20045;-74
2022/11/10 03:52:02;;;;;;;72.57;30.92;;;;;;;;;;12949471;22;20522;-74
2022/11/10 03:57:03;;;;;;;73.85;30.65;;;;;;;;;;12998024;22;20018;-73
2022/11/10 04:02:03;;;;;;;82.88;32.67;;;;;;;;;;12997706;22;20066;-79
2022/11/10 04:17:47;;;;;;;65.15;28.50;;;;;;;;;;13002722;22;20067;-74
2022/11/10 04:28:06;;;;;;;59.28;27.02;;;;;;;;;;13007169;22;19999;-78
2022/11/10 04:33:06;;;;;;;52.97;23.52;;;;;;;;;;12953011;22;19996;-81
2022/11/10 04:38:06;;;;;;;45.95;22.25;;;;;;;;;;12953076;22;20451;-75
2022/11/10 04:43:07;;;;;;;50.83;22.15;;;;;;;;;;12952230;22;20021;-74
2022/11/10 04:48:07;;;;;;;42.60;21.03;;;;;;;;;;12952052;22;20019;-72
2022/11/10 04:53:07;;;;;;;38.50;20.58;;;;;;;;;;12951592;22;20344;-74
2022/11/10 04:58:08;;;;;;;41.88;20.17;;;;;;;;;;13000423;22;20431;-79
2022/11/10 05:03:09;;;;;;;49.58;20.15;;;;;;;;;;13000562;22;19998;-77
2022/11/10 05:08:09;;;;;;;35.70;18.80;;;;;;;;;;12951790;22;20343;-73
2022/11/10 05:13:10;;;;;;;36.35;18.30;;;;;;;;;;12951888;22;19995;-74
2022/11/10 05:18:10;;;;;;;40.63;19.48;;;;;;;;;;12952301;22;20312;-73
2022/11/10 05:28:29;;;;;;;48.70;22.33;;;;;;;;;;13001546;22;19991;-77
2022/11/10 05:33:30;;;;;;;48.90;20.20;;;;;;;;;;12951408;22;20339;-77
2022/11/10 05:38:30;;;;;;;44.67;20.08;;;;;;;;;;13000049;22;20046;-76
2022/11/10 05:43:30;;;;;;;41.55;19.58;;;;;;;;;;12950177;22;19999;-75
2022/11/10 05:48:31;;;;;;;37.17;20.13;;;;;;;;;;12999031;22;20022;-75
2022/11/10 05:53:31;;;;;;;43.28;20.15;;;;;;;;;;12950982;22;20050;-78
2022/11/10 05:58:32;;;;;;;39.28;20.08;;;;;;;;;;12990235;22;19992;-73
2022/11/10 06:03:32;;;;;;;40.03;19.45;;;;;;;;;;12998605;22;20395;-75
2022/11/10 06:08:32;;;;;;;37.65;19.42;;;;;;;;;;12946557;22;20026;-74
2022/11/10 06:13:33;;;;;;;37.17;20.20;;;;;;;;;;12945550;22;20331;-76
2022/11/10 06:18:33;;;;;;;43.92;20.30;;;;;;;;;;12947032;22;20222;-75
2022/11/10 06:23:33;;;;;;;45.50;19.67;;;;;;;;;;12949956;22;20406;-75
2022/11/10 06:28:33;;;;;;;39.72;20.52;;;;;;;;;;12952663;22;20087;-75
2022/11/10 06:33:34;;;;;;;45.30;20.27;;;;;;;;;;12951785;22;19996;-73
2022/11/10 06:38:34;;;;;;;41.88;21.00;;;;;;;;;;12998633;22;19987;-74
2022/11/10 06:43:34;;;;;;;42.78;19.52;;;;;;;;;;12949794;22;20435;-75
2022/11/10 06:48:34;;;;;;;40.23;20.27;;;;;;;;;;12997959;22;19995;-74
2022/11/10 06:53:35;;;;;;;39.38;19.70;;;;;;;;;;12950329;22;19995;-76
2022/11/10 06:58:35;;;;;;;43.78;21.77;;;;;;;;;;12949258;22;20069;-77
2022/11/10 07:03:36;;;;;;;44.42;23.50;;;;;;;;;;12949249;22;19991;-73
2022/11/10 07:08:36;;;;;;;55.47;26.02;;;;;;;;;;12949234;22;20383;-74
2022/11/10 07:13:36;;;;;;;52.15;23.48;;;;;;;;;;12949802;22;20002;-73
2022/11/10 07:18:37;;;;;;;61.00;28.85;;;;;;;;;;12998180;22;20041;-76
2022/11/10 07:23:37;;;;;;;66.53;30.90;;;;;;;;;;12986781;22;20016;-77
2022/11/10 07:28:37;;;;;;;72.63;31.27;;;;;;;;;;12988570;22;19992;-75
2022/11/10 07:33:38;;;;;;;75.78;31.80;;;;;;;;;;12949605;22;19996;-75
2022/11/10 07:38:38;;;;;;;80.20;32.25;;;;;;;;;;12949759;22;19992;-77
2022/11/10 07:43:38;;;;;;;78.70;36.47;;;;;;;;;;12999934;22;20030;-79
2022/11/10 07:48:38;;;;;;;86.88;36.08;;;;;;;;;;12953996;22;19999;-78
2022/11/10 07:53:40;;;;;;;76.10;34.22;;;;;;;;;;12953679;22;20327;-74
2022/11/10 07:58:40;;;;;;;70.97;31.83;;;;;;;;;;12974374;22;20379;-74
2022/11/10 08:03:40;;;;;;;73.30;31.05;;;;;;;;;;12953686;22;20036;-75
2022/11/10 08:08:41;;;;;;;64.90;29.92;;;;;;;;;;13001687;22;20447;-75
2022/11/10 08:13:41;;;;;;;74.40;32.05;;;;;;;;;;13001476;22;20451;-78
2022/11/10 08:18:41;;;;;;;64.07;30.83;;;;;;;;;;12953464;22;20014;-79
2022/11/10 08:23:41;;;;;;;69.05;33.17;;;;;;;;;;12990067;22;20023;-74
2022/11/10 08:28:43;;;;;;;80.68;34.03;;;;;;;;;;12952660;22;20006;-80
2022/11/10 08:33:43;;;;;;;81.15;35.67;;;;;;;;;;12952763;22;20432;-76
2022/11/10 08:38:43;;;;;;;75.40;36.50;;;;;;;;;;12927428;22;20053;-80
2022/11/10 08:43:43;;;;;;;83.25;38.15;;;;;;;;;;12952654;22;19995;-80
2022/11/10 08:48:44;;;;;;;83.20;38.50;;;;;;;;;;13001532;22;19987;-81
2022/11/10 08:53:44;;;;;;;80.07;36.85;;;;;;;;;;12953048;22;20077;-75
2022/11/10 08:58:44;;;;;;;75.75;34.10;;;;;;;;;;12952607;22;20039;-80
2022/11/10 09:03:45;;;;;;;88.53;37.92;;;;;;;;;;12952797;22;20002;-73
2022/11/10 09:08:46;;;;;;;74.38;35.72;;;;;;;;;;13000954;22;19988;-73
2022/11/10 09:13:46;;;;;;;72.47;35.25;;;;;;;;;;12967480;22;20003;-72
2022/11/10 09:18:47;;;;;;;80.57;39.35;;;;;;;;;;12953939;22;20428;-74
2022/11/10 09:23:47;;;;;;;92.90;39.75;;;;;;;;;;12989337;22;20047;-76
2022/11/10 09:28:48;;;;;;;80.03;41.40;;;;;;;;;;12952427;22;20030;-74
2022/11/10 09:33:48;;;;;;;82.43;40.38;;;;;;;;;;12999779;22;20067;-73
2022/11/10 09:38:48;;;;;;;86.97;38.97;;;;;;;;;;12999662;22;20423;-75
2022/11/10 09:43:55;;;;;;;69.80;35.17;;;;;;;;;;12951212;22;19992;-74
2022/11/10 09:49:15;;;;;;;86.03;38.60;;;;;;;;;;12951580;22;20484;-77
2022/11/10 09:54:26;;;;;;;74.13;37.53;;;;;;;;;;12950695;22;20006;-73
2022/11/10 09:59:28;;;;;;;80.00;35.92;;;;;;;;;;12950505;22;20035;-72
2022/11/10 10:04:28;;;;;;;82.05;36.80;;;;;;;;;;12951222;22;19995;-81
2022/11/10 10:09:36;;;;;;;78.57;38.05;;;;;;;;;;12950255;22;19996;-74
2022/11/10 10:14:55;;;;;;;82.60;36.05;;;;;;;;;;12925385;22;19995;-73
2022/11/10 10:20:00;;;;;;;78.30;34.45;;;;;;;;;;12950889;22;19988;-73
2022/11/10 10:25:02;;;;;;;69.57;33.05;;;;;;;;;;12912696;23;20020;-74
2022/11/10 10:30:10;;;;;;;60.58;32.15;;;;;;;;;;12935531;22;20003;-74
2022/11/10 10:35:11;;;;;;;67.10;32.05;;;;;;;;;;12912924;23;19996;-74
2022/11/10 10:40:13;;;;;;;67.68;32.65;;;;;;;;;;13027073;22;20079;-75
2022/11/10 10:45:14;;;;;;;63.05;30.88;;;;;;;;;;13077703;22;19999;-75
2022/11/10 10:50:15;;;;;;;65.38;32.40;;;;;;;;;;13077810;22;19995;-74
2022/11/10 10:55:15;;;;;;;57.35;32.42;;;;;;;;;;13077715;22;19995;-74
2022/11/10 11:00:19;;;;;;;58.17;31.23;;;;;;;;;;13077791;22;20435;-76
2022/11/10 11:05:19;;;;;;;52.22;28.02;;;;;;;;;;13077661;22;20061;-74
2022/11/10 11:10:23;;;;;;;53.65;29.20;;;;;;;;;;13077783;22;20488;-78
2022/11/10 11:15:28;;;;;;;54.30;30.17;;;;;;;;;;13126446;22;20018;-74
2022/11/10 11:20:33;;;;;;;56.30;28.83;;;;;;;;;;13104977;22;20052;-75
2022/11/10 11:25:35;;;;;;;64.30;33.40;;;;;;;;;;13052292;22;20464;-74
2022/11/10 11:30:45;;;;;;;54.83;29.20;;;;;;;;;;13126491;22;20575;-74
2022/11/10 11:35:52;;;;;;;59.20;32.38;;;;;;;;;;13051703;22;19991;-79
2022/11/10 11:41:00;;;;;;;64.60;33.45;;;;;;;;;;13076415;22;20019;-74
2022/11/10 11:46:10;;;;;;;67.53;35.40;;;;;;;;;;13077368;22;20007;-75
2022/11/10 11:51:17;;;;;;;72.72;37.70;;;;;;;;;;13077798;22;20033;-73
2022/11/10 11:56:22;;;;;;;78.45;38.15;;;;;;;;;;13076924;22;20017;-75
2022/11/10 12:01:32;;;;;;;73.20;33.42;;;;;;;;;;13077092;22;20083;-74
2022/11/10 12:06:43;;;;;;;77.43;38.50;;;;;;;;;;13077226;22;19991;-75
2022/11/10 12:11:50;;;;;;;71.05;35.97;;;;;;;;;;13076697;22;20082;-76
2022/11/10 12:16:59;;;;;;;70.15;35.85;;;;;;;;;;13077807;22;19990;-75
2022/11/10 12:21:59;;;;;;;80.38;37.15;;;;;;;;;;13062548;22;20048;-76
2022/11/10 12:27:03;;;;;;;80.70;37.08;;;;;;;;;;13090722;22;20018;-75
2022/11/10 12:32:09;;;;;;;80.97;37.42;;;;;;;;;;13060188;22;19995;-74
2022/11/10 12:37:14;;;;;;;80.03;36.97;;;;;;;;;;13087426;22;20422;-75
2022/11/10 12:42:18;;;;;;;79.72;37.75;;;;;;;;;;13082255;22;20018;-75
2022/11/10 12:47:19;;;;;;;74.55;35.10;;;;;;;;;;13081026;22;20079;-74
2022/11/10 12:52:26;;;;;;;67.78;33.88;;;;;;;;;;13101998;22;20057;-75
2022/11/10 12:57:27;;;;;;;78.45;33.97;;;;;;;;;;13080754;22;19990;-72
2022/11/10 13:02:29;;;;;;;75.90;38.90;;;;;;;;;;13123683;22;19995;-75
2022/11/10 13:07:30;;;;;;;67.35;32.15;;;;;;;;;;13080813;22;20422;-75
2022/11/10 13:12:30;;;;;;;83.72;36.22;;;;;;;;;;13085234;22;20010;-74
2022/11/10 13:17:31;;;;;;;77.28;38.40;;;;;;;;;;13129964;22;20010;-74
2022/11/10 13:22:33;;;;;;;70.47;34.63;;;;;;;;;;13124738;22;20010;-75
2022/11/10 13:27:36;;;;;;;66.63;33.08;;;;;;;;;;13081283;22;20351;-75
2022/11/10 13:32:36;;;;;;;66.32;33.05;;;;;;;;;;13079734;22;20041;-73
2022/11/10 13:37:41;;;;;;;67.60;32.37;;;;;;;;;;13079559;22;19998;-74
2022/11/10 13:42:57;;;;;;;74.15;35.65;;;;;;;;;;13104848;22;20124;-74
2022/11/10 13:48:03;;;;;;;75.55;33.08;;;;;;;;;;13077793;22;19998;-74
2022/11/10 13:53:12;;;;;;;74.47;33.13;;;;;;;;;;13077909;22;19998;-74
2022/11/10 13:58:17;;;;;;;75.15;32.00;;;;;;;;;;13077268;22;19997;-73
2022/11/10 14:03:36;;;;;;;75.53;33.90;;;;;;;;;;13126522;22;20400;-73
2022/11/10 14:08:38;;;;;;;66.20;32.33;;;;;;;;;;13076538;22;20407;-74
2022/11/10 14:13:44;;;;;;;69.18;33.40;;;;;;;;;;13076420;22;19994;-74
2022/11/10 14:18:47;;;;;;;76.18;38.55;;;;;;;;;;13125486;22;19994;-74
2022/11/10 14:23:52;;;;;;;75.68;34.22;;;;;;;;;;13077233;22;20014;-75
2022/11/10 14:28:52;;;;;;;66.53;33.45;;;;;;;;;;13126212;22;19991;-74
2022/11/10 14:33:54;;;;;;;79.18;33.28;;;;;;;;;;13125367;22;20002;-73
2022/11/10 14:38:56;;;;;;;71.15;32.72;;;;;;;;;;13076423;22;20359;-75
2022/11/10 14:43:58;;;;;;;68.07;33.53;;;;;;;;;;13075872;22;20006;-75
2022/11/10 14:48:59;;;;;;;68.43;32.72;;;;;;;;;;13076033;22;20005;-74
2022/11/10 14:53:59;;;;;;;63.33;33.20;;;;;;;;;;13125006;22;20498;-77
2022/11/10 14:59:04;;;;;;;74.47;35.30;;;;;;;;;;13074996;22;19987;-73
2022/11/10 15:04:05;;;;;;;80.97;36.90;;;;;;;;;;13124393;22;19994;-72
2022/11/10 15:09:13;;;;;;;70.07;35.80;;;;;;;;;;13075056;22;20323;-73
2022/11/10 15:14:32;;;;;;;76.03;35.00;;;;;;;;;;13075408;22;20024;-78
2022/11/10 15:19:35;;;;;;;88.40;31.50;;;;;;;;;;13075534;22;20468;-75
2022/11/10 15:24:35;;;;;;;67.38;31.25;;;;;;;;;;13075656;22;19997;-74
2022/11/10 15:29:36;;;;;;;74.00;30.13;;;;;;;;;;13095619;22;20068;-73
2022/11/10 15:34:37;;;;;;;87.47;34.33;;;;;;;;;;13074528;22;20834;-74
2022/11/10 15:39:37;;;;;;;79.88;34.78;;;;;;;;;;13075260;22;20010;-75
2022/11/10 15:44:37;;;;;;;76.00;31.73;;;;;;;;;;13084577;22;20002;-77
2022/11/10 15:49:38;;;;;;;78.28;32.63;;;;;;;;;;13086211;22;19991;-77
2022/11/10 15:54:38;;;;;;;74.82;29.20;;;;;;;;;;13086311;22;19995;-74
2022/11/10 15:59:38;;;;;;;83.03;30.40;;;;;;;;;;13055041;22;19993;-73
2022/11/10 16:04:39;;;;;;;110.53;40.33;;;;;;;;;;13127537;22;19991;-74
2022/11/10 16:09:39;;;;;;;122.03;44.47;;;;;;;;;;13079336;22;20228;-73
2022/11/10 16:14:40;;;;;;;72.28;30.58;;;;;;;;;;13078762;22;20095;-73
2022/11/10 16:19:40;;;;;;;59.38;27.48;;;;;;;;;;13052464;22;20383;-73
2022/11/10 16:24:40;;;;;;;54.58;25.13;;;;;;;;;;13079317;22;19997;-75
2022/11/10 16:29:41;;;;;;;63.78;27.38;;;;;;;;;;13079408;22;20024;-74
2022/11/10 16:34:41;;;;;;;59.70;26.02;;;;;;;;;;13127857;22;19994;-75
2022/11/10 16:39:42;;;;;;;58.88;29.10;;;;;;;;;;13077229;22;20014;-79
2022/11/10 16:44:43;;;;;;;77.50;32.58;;;;;;;;;;13077830;22;20026;-77
2022/11/10 16:49:44;;;;;;;70.00;28.63;;;;;;;;;;13078086;22;20019;-76
2022/11/10 16:54:44;;;;;;;62.90;28.73;;;;;;;;;;13078390;22;20561;-80
2022/11/10 16:59:44;;;;;;;64.25;27.48;;;;;;;;;;13052233;22;20073;-76
2022/11/10 17:04:44;;;;;;;60.30;29.07;;;;;;;;;;13078340;22;20073;-78
2022/11/10 17:09:45;;;;;;;70.78;32.55;;;;;;;;;;13128226;22;20052;-75
2022/11/10 17:14:45;;;;;;;73.65;30.65;;;;;;;;;;13127043;22;20530;-75
2022/11/10 17:19:46;;;;;;;80.03;32.00;;;;;;;;;;13078048;22;20330;-79
2022/11/10 17:24:48;;;;;;;72.70;30.33;;;;;;;;;;13079110;22;19998;-75
2022/11/10 17:29:49;;;;;;;69.32;30.92;;;;;;;;;;13077575;22;19998;-74
2022/11/10 17:34:49;;;;;;;77.53;32.67;;;;;;;;;;13077699;22;20047;-77
2022/11/10 17:39:49;;;;;;;76.45;32.83;;;;;;;;;;13078530;22;20398;-76
2022/11/10 17:44:49;;;;;;;79.40;32.00;;;;;;;;;;13079016;22;20486;-81
2022/11/10 17:49:50;;;;;;;77.38;33.53;;;;;;;;;;13078795;22;20462;-75
2022/11/10 17:54:50;;;;;;;74.93;32.47;;;;;;;;;;13081871;22;20439;-75
2022/11/10 17:59:50;;;;;;;68.70;30.60;;;;;;;;;;13077723;22;20021;-75
2022/11/10 18:04:50;;;;;;;66.10;29.88;;;;;;;;;;13076561;22;20025;-77
2022/11/10 18:09:51;;;;;;;64.43;29.88;;;;;;;;;;13077170;22;20028;-74
2022/11/10 18:14:51;;;;;;;75.85;30.77;;;;;;;;;;13064984;22;20003;-78
2022/11/10 18:19:51;;;;;;;71.15;33.22;;;;;;;;;;13080344;22;19994;-76
2022/11/10 18:24:52;;;;;;;77.35;32.50;;;;;;;;;;13082080;22;19999;-75
2022/11/10 18:29:53;;;;;;;77.68;31.40;;;;;;;;;;13132471;22;20002;-73
2022/11/10 18:34:53;;;;;;;74.32;34.45;;;;;;;;;;13073383;22;19999;-74
2022/11/10 18:39:53;;;;;;;75.90;33.03;;;;;;;;;;13074882;22;20445;-74
2022/11/10 18:44:54;;;;;;;73.47;34.50;;;;;;;;;;13073214;22;20453;-78
2022/11/10 18:49:54;;;;;;;77.40;37.10;;;;;;;;;;13121222;22;20009;-75
2022/11/10 18:54:54;;;;;;;83.07;37.92;;;;;;;;;;13064489;22;19999;-77
2022/11/10 18:59:55;;;;;;;77.05;36.78;;;;;;;;;;13066057;22;20066;-76
2022/11/10 19:04:55;;;;;;;76.82;33.70;;;;;;;;;;13070077;22;20048;-74
2022/11/10 19:09:56;;;;;;;79.93;33.60;;;;;;;;;;13121484;22;20320;-77
2022/11/10 19:14:57;;;;;;;83.43;36.38;;;;;;;;;;13071901;22;20607;-78
2022/11/10 19:19:57;;;;;;;77.50;34.95;;;;;;;;;;13073331;22;19997;-79
2022/11/10 19:24:57;;;;;;;85.45;35.50;;;;;;;;;;13073641;22;19987;-74
2022/11/10 19:29:58;;;;;;;79.78;36.45;;;;;;;;;;13072343;22;20069;-75
2022/11/10 19:34:58;;;;;;;69.90;33.67;;;;;;;;;;13072955;22;20070;-76
2022/11/10 19:39:58;;;;;;;65.87;30.40;;;;;;;;;;13046407;22;20014;-77
2022/11/10 19:44:59;;;;;;;66.32;34.47;;;;;;;;;;13073657;22;20064;-77
2022/11/10 19:49:59;;;;;;;81.40;34.55;;;;;;;;;;13073185;22;19998;-76
2022/11/10 19:54:59;;;;;;;82.35;33.85;;;;;;;;;;13073311;22;19999;-73
2022/11/10 20:00:00;;;;;;;72.50;34.83;;;;;;;;;;13122940;22;19987;-74
2022/11/10 20:05:12;;;;;;;77.65;30.80;;;;;;;;;;13072731;22;20019;-77
2022/11/10 20:10:12;;;;;;;66.07;30.13;;;;;;;;;;13122604;22;20373;-75
2022/11/10 20:15:13;;;;;;;64.13;29.73;;;;;;;;;;13072423;22;19998;-75
2022/11/10 20:20:13;;;;;;;69.23;30.97;;;;;;;;;;13072934;22;20065;-76
2022/11/10 20:25:13;;;;;;;72.57;29.80;;;;;;;;;;13122361;22;20343;-74
2022/11/10 20:30:14;;;;;;;77.63;30.90;;;;;;;;;;13047985;22;20435;-76
2022/11/10 20:35:14;;;;;;;69.50;29.73;;;;;;;;;;13071397;22;20446;-78
2022/11/10 20:40:14;;;;;;;69.05;31.90;;;;;;;;;;13071365;22;20114;-79
2022/11/10 20:45:14;;;;;;;78.25;33.58;;;;;;;;;;13073193;22;19999;-78
2022/11/10 20:50:15;;;;;;;72.55;32.97;;;;;;;;;;13086066;22;20033;-76
2022/11/10 20:55:15;;;;;;;64.10;32.15;;;;;;;;;;13090040;22;20029;-77
2022/11/10 21:00:15;;;;;;;72.88;32.20;;;;;;;;;;13084264;22;20025;-72
2022/11/10 21:05:15;;;;;;;74.30;31.13;;;;;;;;;;13126760;22;20044;-74
2022/11/10 21:10:16;;;;;;;57.63;26.95;;;;;;;;;;13077009;22;20097;-76
2022/11/10 21:15:20;;;;;;;64.67;28.87;;;;;;;;;;13127140;22;19995;-76
2022/11/10 21:20:20;;;;;;;57.67;28.88;;;;;;;;;;13126459;22;19987;-75
2022/11/10 21:25:20;;;;;;;59.20;25.77;;;;;;;;;;13075304;22;20343;-75
2022/11/10 21:30:23;;;;;;;51.20;24.58;;;;;;;;;;13124239;22;20024;-80
2022/11/10 21:35:24;;;;;;;58.45;27.50;;;;;;;;;;13075571;22;20003;-79
2022/11/10 21:40:25;;;;;;;60.78;27.00;;;;;;;;;;13076980;22;20466;-79
2022/11/10 21:45:25;;;;;;;56.53;27.40;;;;;;;;;;13077281;22;20018;-74
2022/11/10 21:50:25;;;;;;;61.78;27.45;;;;;;;;;;13074323;22;20335;-75
2022/11/10 21:55:26;;;;;;;58.85;26.52;;;;;;;;;;13124568;22;20498;-76
2022/11/10 22:00:26;;;;;;;58.05;27.13;;;;;;;;;;13077610;22;20075;-78
2022/11/10 22:05:27;;;;;;;61.17;29.08;;;;;;;;;;13075601;22;20064;-73
2022/11/10 22:21:06;;;;;;;68.43;32.83;;;;;;;;;;13127067;22;19999;-74
2022/11/10 22:26:06;;;;;;;76.60;31.35;;;;;;;;;;13128172;22;20067;-74
2022/11/10 22:31:08;;;;;;;72.18;33.20;;;;;;;;;;13080289;22;20324;-74
2022/11/10 22:36:10;;;;;;;72.95;33.45;;;;;;;;;;13078911;22;19986;-73
2022/11/10 22:46:37;;;;;;;62.22;31.95;;;;;;;;;;13083086;22;19999;-76
2022/11/10 22:51:37;;;;;;;69.22;32.35;;;;;;;;;;13078871;22;20002;-76
2022/11/10 22:56:38;;;;;;;70.15;31.25;;;;;;;;;;13127522;22;20086;-75
2022/11/10 23:01:39;;;;;;;78.40;33.63;;;;;;;;;;13128011;22;20066;-79
2022/11/10 23:06:40;;;;;;;65.50;31.70;;;;;;;;;;13078164;22;20083;-76
2022/11/10 23:11:40;;;;;;;67.60;31.02;;;;;;;;;;13084560;22;20037;-72
2022/11/10 23:16:41;;;;;;;76.60;31.40;;;;;;;;;;13134050;22;19990;-75
2022/11/10 23:21:41;;;;;;;70.15;32.38;;;;;;;;;;13085489;22;19994;-74
2022/11/10 23:26:41;;;;;;;73.15;33.10;;;;;;;;;;13084623;22;19995;-74
2022/11/10 23:31:41;;;;;;;67.45;32.08;;;;;;;;;;13128243;22;20077;-75
2022/11/10 23:36:42;;;;;;;76.43;32.55;;;;;;;;;;13078158;22;20394;-75
2022/11/10 23:41:42;;;;;;;70.18;34.45;;;;;;;;;;13077707;22;20019;-76
2022/11/10 23:46:42;;;;;;;61.22;30.90;;;;;;;;;;13078180;22;19995;-73
2022/11/10 23:51:43;;;;;;;73.05;33.33;;;;;;;;;;13105499;22;20026;-75
2022/11/10 23:56:43;;;;;;;71.50;34.30;;;;;;;;;;13099767;22;19987;-79
